createdAt,value
2023-05-05T04:31:00.032Z,74.87
2023-05-05T04:33:26.611Z,75.36
2023-05-05T04:35:53.140Z,75.76
2023-05-05T04:38:19.688Z,76.25
2023-05-05T04:40:46.232Z,75.98
2023-05-05T04:43:12.798Z,76.47
2023-05-05T04:45:39.395Z,76.14
2023-05-05T04:48:06.036Z,77.20
2023-05-05T04:50:32.799Z,76.30
2023-05-05T04:52:59.416Z,76.96
2023-05-05T04:55:25.950Z,76.38
2023-05-05T04:57:52.524Z,77.11
2023-05-05T05:00:19.160Z,76.75
2023-05-05T05:02:45.854Z,77.43
2023-05-05T05:05:12.486Z,77.09
2023-05-05T05:07:39.042Z,77.65
2023-05-05T05:10:06.193Z,77.02
2023-05-05T05:12:32.906Z,76.97
2023-05-05T05:14:59.500Z,77.02
2023-05-05T05:17:26.198Z,77.55
2023-05-05T05:19:52.742Z,77.64
2023-05-05T05:22:19.318Z,77.62
2023-05-05T05:24:45.906Z,77.28
2023-05-05T05:27:12.466Z,77.37
2023-05-05T05:29:40.131Z,77.30
2023-05-05T05:32:06.884Z,77.48
2023-05-05T05:34:33.519Z,77.58
2023-05-05T05:37:00.041Z,77.58
2023-05-05T05:39:26.673Z,77.59
2023-05-05T05:41:53.256Z,77.15
2023-05-05T05:44:19.795Z,76.81
2023-05-05T05:46:46.358Z,77.24
2023-05-05T05:49:12.923Z,77.18
2023-05-05T05:51:39.524Z,76.79
2023-05-05T05:54:06.063Z,77.08
2023-05-05T05:56:32.611Z,76.52
2023-05-05T05:58:59.148Z,76.58
2023-05-05T06:01:25.756Z,76.48
2023-05-05T06:03:52.365Z,75.49
2023-05-05T06:06:18.963Z,75.94
2023-05-05T06:08:45.518Z,75.83
2023-05-05T06:11:12.039Z,75.62
2023-05-05T06:13:38.577Z,74.55
2023-05-05T06:16:05.381Z,73.81
2023-05-05T06:18:31.925Z,73.48
2023-05-05T06:20:58.500Z,74.01
2023-05-05T06:23:25.076Z,74.40
2023-05-05T06:25:51.631Z,73.93
2023-05-05T06:28:18.106Z,74.46
2023-05-05T06:30:44.676Z,74.42
2023-05-05T06:33:11.182Z,74.89
2023-05-05T06:35:37.712Z,74.38
2023-05-05T06:38:04.281Z,74.13
2023-05-05T06:40:30.811Z,73.64
2023-05-05T06:42:57.339Z,73.17
2023-05-05T06:45:23.871Z,73.41
2023-05-05T06:47:50.414Z,73.19
2023-05-05T06:50:17.027Z,72.50
2023-05-05T06:52:43.586Z,72.22
2023-05-05T06:55:10.153Z,71.08
2023-05-05T06:57:36.719Z,71.04
2023-05-05T07:00:05.166Z,69.99
2023-05-05T07:02:31.991Z,69.99
2023-05-05T07:04:58.589Z,69.73
2023-05-05T07:07:25.173Z,69.30
2023-05-05T07:09:51.718Z,69.41
2023-05-05T07:12:18.237Z,69.48
2023-05-05T07:14:44.772Z,69.90
2023-05-05T07:17:11.296Z,69.41
2023-05-05T07:19:37.821Z,69.02
2023-05-05T07:22:04.372Z,69.28
2023-05-05T07:24:31.046Z,68.88
2023-05-05T07:26:57.629Z,69.42
2023-05-05T07:29:24.135Z,68.54
2023-05-05T07:31:50.703Z,68.67
2023-05-05T07:34:17.372Z,68.89
2023-05-05T07:36:44.301Z,68.77
2023-05-05T07:39:10.798Z,69.03
2023-05-05T07:41:37.338Z,68.27
2023-05-05T07:44:03.887Z,68.14
2023-05-05T07:46:30.771Z,68.44
2023-05-05T07:48:57.279Z,67.86
2023-05-05T07:51:24.149Z,67.33
2023-05-05T07:53:50.703Z,67.22
2023-05-05T07:56:17.193Z,66.80
2023-05-05T07:58:43.765Z,67.00
2023-05-05T08:01:10.315Z,66.49
2023-05-05T08:03:37.328Z,66.35
2023-05-05T08:06:08.011Z,65.82
2023-05-05T08:08:34.557Z,66.24
2023-05-05T08:11:01.251Z,65.77
2023-05-05T08:13:28.317Z,66.07
2023-05-05T08:15:54.936Z,66.21
2023-05-05T08:18:21.574Z,65.11
2023-05-05T08:20:48.085Z,64.82
2023-05-05T08:23:14.629Z,64.94
2023-05-05T08:25:41.335Z,63.83
2023-05-05T08:28:08.054Z,63.47
2023-05-05T08:30:35.034Z,63.49
2023-05-05T08:33:01.672Z,61.90
2023-05-05T08:35:28.296Z,61.51
2023-05-05T08:37:56.044Z,61.54
2023-05-05T08:40:24.809Z,61.20
2023-05-05T08:42:51.340Z,61.21
2023-05-05T08:45:17.885Z,61.13
2023-05-05T08:47:45.030Z,60.88
2023-05-05T08:50:11.688Z,61.38
2023-05-05T08:52:42.577Z,61.36
2023-05-05T08:55:11.977Z,60.78
2023-05-05T08:57:46.125Z,60.82
2023-05-05T09:00:13.159Z,60.61
2023-05-05T09:02:39.785Z,60.42
2023-05-05T09:05:07.062Z,59.78
2023-05-05T09:07:34.141Z,58.50
2023-05-05T09:10:00.706Z,58.45
2023-05-05T09:12:30.391Z,58.21
2023-05-05T09:14:59.053Z,58.41
2023-05-05T09:17:26.421Z,58.64
2023-05-05T09:20:06.834Z,58.76
2023-05-05T09:22:46.841Z,58.43
2023-05-05T09:25:14.785Z,58.97
2023-05-05T09:27:50.936Z,58.74
2023-05-05T09:30:21.284Z,57.97
2023-05-05T09:32:52.518Z,59.45
2023-05-05T09:35:19.450Z,59.13
2023-05-05T09:37:46.457Z,59.57
2023-05-05T09:40:14.013Z,59.65
2023-05-05T09:42:41.048Z,60.39
2023-05-05T09:45:19.748Z,60.84
2023-05-05T09:47:46.876Z,61.02
2023-05-05T09:50:13.740Z,61.70
2023-05-05T09:52:40.368Z,61.06
2023-05-05T09:55:07.426Z,60.86
2023-05-05T09:57:33.980Z,60.58
2023-05-05T10:00:01.792Z,60.52
2023-05-05T10:02:38.966Z,60.63
2023-05-05T10:05:06.342Z,60.07
2023-05-05T10:07:32.986Z,59.79
2023-05-05T10:09:59.536Z,59.03
2023-05-05T10:12:26.042Z,58.42
2023-05-05T10:14:55.846Z,58.21
2023-05-05T10:17:23.019Z,57.09
2023-05-05T10:19:52.630Z,57.09
2023-05-05T10:22:20.051Z,56.92
2023-05-05T10:24:49.065Z,56.33
2023-05-05T10:27:17.348Z,55.73
2023-05-05T10:29:55.369Z,56.02
2023-05-05T10:35:00.873Z,53.85
2023-05-05T10:37:27.733Z,53.66
2023-05-05T10:39:55.012Z,53.46
2023-05-05T10:42:22.670Z,53.56
2023-05-05T10:44:49.308Z,53.62
2023-05-05T10:47:19.241Z,54.64
2023-05-05T10:50:16.001Z,53.22
2023-05-05T10:53:20.113Z,53.49
2023-05-05T10:55:48.463Z,53.47
2023-05-05T10:58:59.023Z,53.43
2023-05-05T11:01:32.964Z,53.09
2023-05-05T11:04:21.153Z,52.95
2023-05-05T11:07:13.370Z,52.88
2023-05-05T11:10:02.991Z,52.88
2023-05-05T11:12:30.497Z,53.04
2023-05-05T11:15:28.268Z,53.49
2023-05-05T11:17:57.228Z,54.32
2023-05-05T11:20:35.881Z,54.56
2023-05-05T11:23:02.341Z,55.09
2023-05-05T11:25:34.788Z,54.04
2023-05-05T11:28:07.293Z,54.12
2023-05-05T11:30:33.980Z,53.42
2023-05-05T11:33:25.561Z,53.07
2023-05-05T11:35:55.330Z,52.82
2023-05-05T11:38:37.170Z,53.19
2023-05-05T11:41:20.717Z,53.01
2023-05-05T11:43:47.292Z,52.93
2023-05-05T11:46:14.635Z,53.04
2023-05-05T11:48:47.988Z,54.49
2023-05-05T11:51:15.257Z,53.99
2023-05-05T11:53:48.807Z,55.01
2023-05-05T11:56:15.637Z,53.96
2023-05-05T11:58:42.146Z,54.70
2023-05-05T12:01:08.839Z,55.33
2023-05-05T12:03:38.671Z,55.25
2023-05-05T12:06:06.086Z,55.12
2023-05-05T12:08:39.209Z,54.84
2023-05-05T12:11:10.281Z,55.17
2023-05-05T12:13:37.097Z,55.67
2023-05-05T12:16:13.899Z,55.51
2023-05-05T12:18:40.564Z,55.03
2023-05-05T12:21:20.093Z,55.06
2023-05-05T12:23:46.877Z,54.97
2023-05-05T12:26:31.851Z,55.51
2023-05-05T12:28:58.935Z,55.26
2023-05-05T12:31:35.203Z,55.19
2023-05-05T12:34:02.442Z,54.70
2023-05-05T12:36:30.472Z,55.31
2023-05-05T12:38:57.249Z,55.56
2023-05-05T12:41:23.768Z,55.92
2023-05-05T12:44:00.060Z,55.55
2023-05-05T12:46:26.965Z,55.32
2023-05-05T12:49:00.823Z,55.78
2023-05-05T12:51:27.520Z,55.39
2023-05-05T12:54:12.418Z,55.01
2023-05-05T12:56:43.445Z,55.21
2023-05-05T12:59:28.853Z,55.38
2023-05-05T13:01:56.736Z,55.79
2023-05-05T13:04:24.364Z,55.68
2023-05-05T13:07:07.653Z,55.34
2023-05-05T13:09:34.198Z,56.03
2023-05-05T13:12:00.744Z,56.49
2023-05-05T13:14:27.332Z,58.71
2023-05-05T13:16:54.021Z,59.99
2023-05-05T13:19:20.598Z,60.39
2023-05-05T13:21:47.274Z,60.72
2023-05-05T13:24:28.049Z,60.36
2023-05-05T13:27:00.470Z,60.38
2023-05-05T13:29:31.415Z,59.67
2023-05-05T13:31:58.252Z,60.42
2023-05-05T13:34:24.892Z,59.94
2023-05-05T13:36:51.505Z,59.45
2023-05-05T13:39:18.166Z,59.55
2023-05-05T13:41:44.818Z,58.81
2023-05-05T13:44:11.804Z,59.48
2023-05-05T13:46:38.443Z,59.25
2023-05-05T13:49:05.165Z,58.70
2023-05-05T13:51:31.705Z,56.86
2023-05-05T13:53:58.265Z,56.03
2023-05-05T13:56:24.794Z,53.38
2023-05-05T13:58:51.347Z,50.82
2023-05-05T14:01:17.936Z,48.26
2023-05-05T14:03:44.527Z,46.14
2023-05-05T14:06:11.248Z,45.77
2023-05-05T14:08:37.797Z,44.82
2023-05-05T14:11:04.382Z,43.72
2023-05-05T14:13:30.905Z,44.67
2023-05-05T14:15:57.519Z,47.47
2023-05-05T14:18:25.124Z,49.25
2023-05-05T14:20:51.693Z,51.16
2023-05-05T14:23:18.255Z,53.14
2023-05-05T14:25:44.822Z,54.12
2023-05-05T14:28:11.365Z,54.24
2023-05-05T14:30:37.928Z,55.36
2023-05-05T14:33:04.558Z,55.09
2023-05-05T14:35:31.201Z,55.27
2023-05-05T14:37:57.772Z,54.53
2023-05-05T14:40:24.322Z,55.24
2023-05-05T14:42:50.877Z,55.93
2023-05-05T14:45:17.743Z,56.39
2023-05-05T14:47:44.288Z,56.20
2023-05-05T14:50:10.954Z,56.67
2023-05-05T14:52:37.709Z,56.84
2023-05-05T14:55:04.479Z,57.03
2023-05-05T14:57:31.067Z,58.35
2023-05-05T14:59:57.653Z,58.37
2023-05-05T15:02:24.240Z,58.50
2023-05-05T15:04:50.854Z,58.56
2023-05-05T15:07:17.418Z,58.33
2023-05-05T15:09:43.970Z,60.29
2023-05-05T15:12:10.528Z,61.74
2023-05-05T15:14:37.079Z,62.75
2023-05-05T15:17:03.762Z,63.75
2023-05-05T15:19:30.308Z,65.35
2023-05-05T15:21:56.891Z,66.92
2023-05-05T15:24:23.419Z,66.46
2023-05-05T15:26:49.954Z,65.52
2023-05-05T15:29:16.499Z,65.27
2023-05-05T15:31:43.056Z,65.86
2023-05-05T15:34:09.714Z,64.76
2023-05-05T15:36:36.257Z,64.66
2023-05-05T15:39:02.826Z,62.96
2023-05-05T15:41:29.426Z,62.92
2023-05-05T15:43:56.012Z,62.91
2023-05-05T15:46:22.597Z,62.46
2023-05-05T15:48:49.239Z,62.87
2023-05-05T15:51:15.850Z,62.69
2023-05-05T15:53:42.425Z,62.22
2023-05-05T15:56:09.022Z,62.70
2023-05-05T15:58:35.586Z,62.36
2023-05-05T16:01:02.214Z,62.71
2023-05-05T16:03:29.077Z,62.27
2023-05-05T16:05:55.824Z,62.90
2023-05-05T16:08:22.402Z,62.97
2023-05-05T16:10:48.931Z,62.99
2023-05-05T16:13:15.614Z,63.08
2023-05-05T16:15:42.298Z,63.54
2023-05-05T16:18:08.941Z,63.62
2023-05-05T16:20:35.527Z,63.50
2023-05-05T16:23:02.049Z,63.99
2023-05-05T16:25:28.654Z,64.35
2023-05-05T16:27:55.191Z,63.85
2023-05-05T16:30:21.707Z,64.65
2023-05-05T16:32:48.483Z,63.77
2023-05-05T16:35:15.390Z,64.82
2023-05-05T16:37:41.934Z,65.35
2023-05-05T16:40:09.118Z,65.42
2023-05-05T16:42:35.689Z,64.45
2023-05-05T16:45:02.266Z,65.56
2023-05-05T16:47:28.838Z,65.24
2023-05-05T16:49:55.442Z,65.55
2023-05-05T16:52:21.998Z,65.38
2023-05-05T16:54:48.551Z,66.83
2023-05-05T16:57:15.102Z,65.99
2023-05-05T16:59:41.693Z,66.00
2023-05-05T17:02:08.292Z,66.22
2023-05-05T17:04:34.850Z,66.67
2023-05-05T17:07:01.448Z,66.73
2023-05-05T17:09:27.973Z,66.77
2023-05-05T17:11:54.536Z,66.36
2023-05-05T17:14:21.093Z,67.08
2023-05-05T17:16:47.644Z,66.90
2023-05-05T17:19:14.151Z,66.39
2023-05-05T17:21:40.704Z,66.98
2023-05-05T17:24:07.619Z,67.22
2023-05-05T17:26:34.131Z,67.90
2023-05-05T17:29:00.715Z,68.09
2023-05-05T17:31:27.267Z,68.27
2023-05-05T17:33:53.865Z,68.94
2023-05-05T17:36:20.464Z,69.79
2023-05-05T17:38:46.998Z,69.27
2023-05-05T17:41:13.555Z,69.26
2023-05-05T17:43:40.052Z,69.41
2023-05-05T17:46:06.745Z,69.40
2023-05-05T17:48:33.296Z,70.40
2023-05-05T17:50:59.896Z,71.85
2023-05-05T17:53:26.448Z,73.02
2023-05-05T17:55:52.972Z,74.37
2023-05-05T17:58:20.045Z,73.76
2023-05-05T18:00:46.632Z,74.17
2023-05-05T18:03:13.262Z,74.30
2023-05-05T18:05:39.996Z,74.85
2023-05-05T18:08:06.571Z,75.99
2023-05-05T18:10:33.105Z,76.59
2023-05-05T18:12:59.639Z,77.79
2023-05-05T18:15:26.292Z,78.47
2023-05-05T18:17:52.923Z,79.77
2023-05-05T18:20:19.465Z,80.65
2023-05-05T18:22:46.040Z,81.58
2023-05-05T18:25:12.910Z,82.92
2023-05-05T18:27:39.772Z,83.67
2023-05-05T18:30:06.879Z,83.41
2023-05-05T18:32:33.502Z,83.93
2023-05-05T18:35:00.075Z,83.45
2023-05-05T18:37:26.827Z,83.56
2023-05-05T18:39:53.370Z,83.43
2023-05-05T18:42:19.966Z,83.81
2023-05-05T18:44:46.542Z,82.63
2023-05-05T18:47:13.088Z,81.81
2023-05-05T18:49:39.645Z,82.80
2023-05-05T18:52:07.034Z,82.34
2023-05-05T18:54:34.690Z,81.73
2023-05-05T18:57:02.892Z,81.53
2023-05-05T18:59:29.507Z,81.24
2023-05-05T19:01:56.060Z,81.46
2023-05-05T19:04:30.645Z,80.96
2023-05-05T19:06:58.103Z,81.21
2023-05-05T19:09:25.048Z,80.73
2023-05-05T19:11:51.618Z,80.09
2023-05-05T19:14:18.151Z,80.42
2023-05-05T19:16:44.728Z,80.67
2023-05-05T19:19:11.314Z,80.81
2023-05-05T19:21:38.315Z,80.75
2023-05-05T19:24:08.358Z,80.87
2023-05-05T19:26:34.862Z,80.42
2023-05-05T19:29:01.420Z,80.27
2023-05-05T19:31:28.065Z,79.84
2023-05-05T19:34:02.296Z,80.39
2023-05-05T19:36:33.024Z,80.18
2023-05-05T19:39:03.237Z,80.41
2023-05-05T19:41:30.219Z,79.92
2023-05-05T19:43:57.185Z,79.94
2023-05-05T19:46:24.095Z,79.55
2023-05-05T19:48:50.687Z,79.87
2023-05-05T19:51:17.216Z,79.89
2023-05-05T19:53:43.726Z,79.20
2023-05-05T19:56:10.339Z,79.24
2023-05-05T19:59:12.269Z,79.89
